Airfield :
LOGIN :

Register | Disclaimer

   EN    FR    IT 

 










Legend :    VFR   Marginal VFR   IFR   Intensive IFR   Very Intensive IFR
Visi :
Ceiling :
>= 8 km
>= 3000ft
5 to 8 km
1000 to 3000 ft
1500m to 5 km
500 to 1000 ft
800 to 1500m
200 to 500 ft
< 800m
< 200 ft
Symbols :   Thunderstorms  Fog  Heavy snow  Heavy precipitations  Wind > 20 kt
SIGMETs :     Misc.  Thunderstorms  Icing  Turbulence  Mountain Waves  Volcanic Ashes






- Airport Elevation : 610 ft
- IATA code : VXO


ESMX - Växjö Kronoberg

CURRENT METAR :
  • 020220Z AUTO 03009KT 9999 OVC010/// 03/01 Q1031

EXPIRED METARs :
  • 020150Z AUTO 03008KT 9999 OVC009/// 03/01 Q1031
  • 020120Z AUTO 03010KT 9999 OVC009/// 03/02 Q1031
  • 020050Z 03009KT 9999 BKN008 03/02 Q1031
  • 020020Z 03008KT 9999 BKN008 02/02 Q1031
  • 012350Z 03007KT 9999 BKN008 03/02 Q1031

TAF TAF ESMX
Valid from the 02 at 03:00 until the 02 at 12:00 UTC


020230Z 0203/0212 03007KT 9999 BKN008
TEMPO 0203/0212 BKN012



MET'MAP, your aeronautical weather chart ! - Copyright ORBIFLY December 2007 - Disclaimer

ORBIFLY MET'MAP TEAM :

Programming & Development : Alexandra Zaïnal
Original concept : Baudouin d'Aumeries
Technical & hardware support : Manuel Goepfert
Assistance : Marc-Olivier Méhu




SOURCES & CREDITS :

   NOAA